Time;durP1;ratioP1;P1;durP2;ratioP2;P2;SDS_P1;SDS_P2;PMS_P1;PMS_P2;Temp;Humidity;BMP_temperature;BMP_pressure;BME280_temperature;BME280_humidity;BME280_pressure;Samples;Min_cycle;Max_cycle;Signal;HPM_P1;HPM_P2
2022/06/13 00:02:21;;;;;;;10.48;4.07;;;16.10;99.90;;;;;;5109130;28;20419;-57
2022/06/13 00:04:46;;;;;;;11.80;4.10;;;16.10;99.90;;;;;;5091595;28;20376;-57
2022/06/13 00:07:12;;;;;;;13.60;4.50;;;16.10;99.90;;;;;;5092769;28;20729;-54
2022/06/13 00:09:37;;;;;;;12.10;4.47;;;16.00;99.90;;;;;;5093150;28;20388;-58
2022/06/13 00:12:03;;;;;;;10.50;4.30;;;15.90;99.90;;;;;;5110949;28;20396;-58
2022/06/13 00:14:29;;;;;;;15.40;4.93;;;15.90;99.90;;;;;;5093086;28;20412;-58
2022/06/13 00:16:54;;;;;;;17.43;4.90;;;15.90;99.90;;;;;;5092958;28;20398;-56
2022/06/13 00:19:20;;;;;;;15.05;4.40;;;15.80;99.90;;;;;;5094442;28;20376;-58
2022/06/13 00:21:45;;;;;;;16.67;4.83;;;15.80;99.90;;;;;;5112442;28;20459;-55
2022/06/13 00:24:11;;;;;;;18.23;4.50;;;15.70;99.90;;;;;;5092850;28;20396;-56
2022/06/13 00:26:37;;;;;;;12.82;4.60;;;15.80;99.90;;;;;;5092539;28;20596;-55
2022/06/13 00:29:03;;;;;;;13.70;4.80;;;15.70;99.90;;;;;;5092811;28;20380;-56
2022/06/13 00:31:29;;;;;;;15.32;4.70;;;15.80;99.90;;;;;;5094573;28;20512;-55
2022/06/13 00:33:55;;;;;;;14.97;4.70;;;15.80;99.90;;;;;;5110966;28;20591;-56
2022/06/13 00:36:23;;;;;;;15.20;4.80;;;15.70;99.90;;;;;;5109218;28;20380;-56
2022/06/13 00:38:49;;;;;;;13.53;4.60;;;15.70;99.90;;;;;;5092092;28;20452;-59
2022/06/13 00:41:20;;;;;;;12.73;4.50;;;15.70;99.90;;;;;;5091248;28;20477;-58
2022/06/13 00:43:46;;;;;;;15.90;4.60;;;15.70;99.90;;;;;;5091680;28;20691;-58
2022/06/13 00:46:24;;;;;;;13.45;4.55;;;15.70;99.90;;;;;;5092180;28;20380;-59
2022/06/13 00:48:54;;;;;;;11.15;4.35;;;15.70;99.90;;;;;;5092481;28;20372;-59
2022/06/13 00:51:20;;;;;;;13.68;4.22;;;15.60;99.90;;;;;;5093095;28;20444;-58
2022/06/13 00:53:46;;;;;;;18.08;4.80;;;15.60;99.90;;;;;;5093714;28;20384;-58
2022/06/13 00:56:18;;;;;;;14.32;4.65;;;15.60;99.90;;;;;;5092883;28;20676;-58
2022/06/13 00:58:54;;;;;;;13.57;4.57;;;15.50;99.90;;;;;;5112764;28;20440;-57
2022/06/13 01:01:22;;;;;;;14.45;5.00;;;15.40;99.90;;;;;;5112013;28;20728;-59
2022/06/13 01:03:48;;;;;;;13.10;4.05;;;15.40;99.90;;;;;;5110011;28;20393;-56
2022/06/13 01:06:14;;;;;;;14.73;4.68;;;15.50;99.90;;;;;;5092358;28;20424;-59
2022/06/13 01:08:40;;;;;;;12.77;4.47;;;15.50;99.90;;;;;;5091869;28;20553;-56
2022/06/13 01:11:19;;;;;;;13.13;4.47;;;15.50;99.90;;;;;;5090883;28;20803;-59
2022/06/13 01:13:53;;;;;;;13.32;4.38;;;15.40;99.90;;;;;;5108317;28;20380;-58
2022/06/13 01:16:43;;;;;;;16.35;4.90;;;15.40;99.90;;;;;;5088483;28;20623;-59
2022/06/13 01:19:21;;;;;;;17.33;4.70;;;15.40;99.90;;;;;;5108247;28;20377;-57
2022/06/13 01:21:52;;;;;;;12.50;4.40;;;15.40;99.90;;;;;;5090567;28;20373;-59
2022/06/13 01:24:49;;;;;;;12.43;4.28;;;15.40;99.90;;;;;;5091230;28;20399;-59
2022/06/13 01:27:28;;;;;;;16.00;4.40;;;15.30;99.90;;;;;;5111332;28;20376;-58
2022/06/13 01:30:27;;;;;;;12.25;4.47;;;15.30;99.90;;;;;;5111559;28;20373;-58
2022/06/13 01:33:32;;;;;;;12.87;4.50;;;15.30;99.90;;;;;;5093605;28;20380;-57
2022/06/13 01:36:14;;;;;;;16.13;4.90;;;15.20;99.90;;;;;;5093008;28;20384;-58
2022/06/13 01:38:52;;;;;;;13.60;4.80;;;15.20;99.90;;;;;;5113005;28;20506;-59
2022/06/13 01:41:26;;;;;;;11.98;4.40;;;15.20;99.90;;;;;;5095468;28;20388;-59
2022/06/13 01:44:03;;;;;;;14.95;4.60;;;15.10;99.90;;;;;;5096115;28;20392;-59
2022/06/13 01:47:00;;;;;;;14.93;4.75;;;15.10;99.90;;;;;;5114100;28;20380;-58
2022/06/13 01:49:35;;;;;;;11.95;4.20;;;15.10;99.90;;;;;;5110165;28;20743;-59
2022/06/13 01:52:14;;;;;;;11.75;4.40;;;14.90;99.90;;;;;;5094605;28;20407;-59
2022/06/13 01:54:51;;;;;;;11.85;4.53;;;15.00;99.90;;;;;;5092614;28;20422;-58
2022/06/13 01:57:19;;;;;;;16.13;5.13;;;15.00;99.90;;;;;;5093784;28;20396;-58
2022/06/13 02:00:14;;;;;;;14.20;4.82;;;14.90;99.90;;;;;;5093304;28;20762;-59
2022/06/13 02:02:51;;;;;;;13.18;4.70;;;14.90;99.90;;;;;;5091574;28;20394;-57
2022/06/13 02:05:34;;;;;;;13.95;4.97;;;14.90;99.90;;;;;;5091910;28;20378;-58
2022/06/13 02:08:21;;;;;;;13.15;4.47;;;14.80;99.90;;;;;;5091095;28;20744;-58
2022/06/13 02:11:01;;;;;;;12.13;4.80;;;14.60;99.90;;;;;;5091040;28;20465;-59
2022/06/13 02:13:56;;;;;;;14.98;4.90;;;14.70;99.90;;;;;;5091223;28;20417;-58
2022/06/13 02:16:37;;;;;;;13.37;4.53;;;14.70;99.90;;;;;;5085349;28;20388;-59
2022/06/13 02:19:15;;;;;;;15.13;5.20;;;14.70;99.90;;;;;;5090428;28;20777;-59
2022/06/13 02:21:50;;;;;;;14.00;4.75;;;14.70;99.90;;;;;;5090750;28;20378;-59
2022/06/13 02:24:24;;;;;;;14.48;5.03;;;14.70;99.90;;;;;;5090500;28;20386;-57
2022/06/13 02:26:54;;;;;;;14.50;4.82;;;14.70;99.90;;;;;;5091175;28;20382;-57
2022/06/13 02:29:27;;;;;;;10.95;4.50;;;14.70;99.90;;;;;;5089958;28;20385;-56
2022/06/13 02:32:06;;;;;;;12.50;5.00;;;14.60;99.90;;;;;;5093080;28;20446;-58
2022/06/13 02:34:34;;;;;;;13.80;4.82;;;14.70;99.90;;;;;;5092600;28;20378;-57
2022/06/13 02:37:33;;;;;;;16.98;5.22;;;14.70;99.90;;;;;;5088966;28;20650;-57
2022/06/13 02:40:15;;;;;;;13.98;5.13;;;14.70;99.90;;;;;;5082741;28;20432;-58
2022/06/13 02:43:07;;;;;;;16.33;4.72;;;14.70;99.90;;;;;;5089647;28;20382;-60
2022/06/13 02:45:52;;;;;;;13.70;4.70;;;14.60;99.90;;;;;;5089183;28;20373;-58
2022/06/13 02:48:20;;;;;;;13.95;4.88;;;14.60;99.90;;;;;;5089338;28;20777;-57
2022/06/13 02:51:02;;;;;;;13.90;5.28;;;14.60;99.90;;;;;;5088717;28;20680;-58
2022/06/13 02:54:21;;;;;;;13.93;4.95;;;14.60;99.90;;;;;;5086704;28;20389;-58
2022/06/13 02:57:24;;;;;;;15.48;5.53;;;14.50;99.90;;;;;;5073021;28;20379;-57
2022/06/13 03:00:02;;;;;;;12.55;5.57;;;14.40;99.90;;;;;;5090391;28;20396;-58
2022/06/13 03:03:00;;;;;;;15.32;5.68;;;14.20;99.90;;;;;;5087919;28;20659;-56
2022/06/13 03:05:51;;;;;;;18.50;6.05;;;14.20;99.90;;;;;;5088182;28;20689;-55
2022/06/13 03:08:27;;;;;;;15.02;6.28;;;14.10;99.90;;;;;;5088458;28;20476;-59
2022/06/13 03:11:08;;;;;;;17.83;6.20;;;14.10;99.90;;;;;;5087632;28;20382;-55
2022/06/13 03:13:40;;;;;;;16.98;5.72;;;14.00;99.90;;;;;;5085396;28;20389;-59
2022/06/13 03:16:29;;;;;;;17.77;6.05;;;14.10;99.90;;;;;;5085287;28;20378;-59
2022/06/13 03:19:16;;;;;;;15.30;5.63;;;13.90;99.90;;;;;;5084694;28;20473;-59
2022/06/13 03:21:49;;;;;;;16.02;5.55;;;13.90;99.90;;;;;;5085430;28;20366;-59
2022/06/13 03:24:26;;;;;;;15.27;5.65;;;13.90;99.90;;;;;;5086559;28;20696;-58
2022/06/13 03:26:57;;;;;;;13.75;5.10;;;13.80;99.90;;;;;;5084475;28;20825;-59
2022/06/13 03:29:28;;;;;;;12.07;5.03;;;13.90;99.90;;;;;;5085819;28;20451;-57
2022/06/13 03:31:57;;;;;;;12.93;5.13;;;14.10;99.90;;;;;;5084671;28;20417;-58
2022/06/13 03:34:34;;;;;;;12.75;5.10;;;14.20;99.90;;;;;;5087498;28;20378;-59
2022/06/13 03:37:17;;;;;;;13.85;5.10;;;14.30;99.90;;;;;;5087024;28;20479;-58
2022/06/13 03:39:47;;;;;;;15.27;5.07;;;14.30;99.90;;;;;;5088392;28;20425;-58
2022/06/13 03:42:51;;;;;;;10.68;4.57;;;14.30;99.90;;;;;;5087843;28;20378;-59
2022/06/13 03:45:43;;;;;;;14.25;5.40;;;14.20;99.90;;;;;;5086398;28;20378;-59
2022/06/13 03:48:25;;;;;;;14.18;5.20;;;14.30;99.90;;;;;;5086503;28;20404;-59
2022/06/13 03:51:02;;;;;;;15.52;5.40;;;14.40;99.90;;;;;;5086941;28;20390;-58
2022/06/13 03:53:39;;;;;;;20.02;6.22;;;14.20;99.90;;;;;;5087718;28;20692;-59
2022/06/13 03:56:19;;;;;;;14.55;5.53;;;14.30;99.90;;;;;;5088628;28;20374;-59
2022/06/13 03:58:59;;;;;;;14.30;5.72;;;14.20;99.90;;;;;;5090107;28;20390;-59
2022/06/13 04:01:39;;;;;;;13.88;5.60;;;14.20;99.90;;;;;;5089890;28;20386;-56
2022/06/13 04:04:05;;;;;;;15.40;5.70;;;14.20;99.90;;;;;;5089692;28;20549;-57
2022/06/13 04:06:42;;;;;;;14.90;5.80;;;14.20;99.90;;;;;;5090659;28;20459;-60
2022/06/13 04:09:21;;;;;;;13.50;5.35;;;14.30;99.90;;;;;;5090396;28;20398;-59
2022/06/13 04:11:52;;;;;;;14.57;5.53;;;14.30;99.90;;;;;;5090356;28;20374;-58
2022/06/13 04:14:38;;;;;;;12.95;5.20;;;14.30;99.90;;;;;;5089356;28;20401;-59
2022/06/13 04:17:15;;;;;;;17.00;5.50;;;14.30;99.90;;;;;;5087678;28;20772;-57
2022/06/13 04:19:55;;;;;;;13.77;5.50;;;14.30;99.90;;;;;;5088102;28;20562;-56
2022/06/13 04:22:31;;;;;;;12.90;5.17;;;14.40;99.90;;;;;;5087948;28;20708;-58
2022/06/13 04:25:08;;;;;;;15.40;5.63;;;14.50;99.90;;;;;;5087578;28;20393;-59
2022/06/13 04:28:01;;;;;;;13.18;4.70;;;14.50;99.90;;;;;;5089373;28;20477;-59
2022/06/13 04:30:30;;;;;;;15.00;5.10;;;14.50;99.90;;;;;;5088946;28;20550;-59
2022/06/13 04:33:16;;;;;;;12.40;4.95;;;14.60;99.90;;;;;;5088476;28;20465;-58
2022/06/13 04:35:43;;;;;;;11.82;5.38;;;14.60;99.90;;;;;;5088676;28;20393;-59
2022/06/13 04:38:12;;;;;;;14.38;5.22;;;14.60;99.90;;;;;;5087431;28;20807;-58
2022/06/13 04:40:45;;;;;;;11.98;5.15;;;14.50;99.90;;;;;;5086485;28;20649;-58
2022/06/13 04:43:14;;;;;;;15.53;5.27;;;14.40;99.90;;;;;;5086823;28;20763;-58
2022/06/13 04:45:51;;;;;;;10.90;4.97;;;14.30;99.90;;;;;;5083955;28;20518;-58
2022/06/13 04:48:18;;;;;;;15.13;4.97;;;14.30;99.90;;;;;;5081060;28;20719;-58
2022/06/13 04:50:53;;;;;;;13.45;5.57;;;14.20;99.90;;;;;;5078713;28;20370;-57
2022/06/13 04:53:24;;;;;;;13.05;5.32;;;14.10;99.90;;;;;;5078793;28;20710;-57
2022/06/13 04:55:52;;;;;;;12.75;5.43;;;14.20;99.90;;;;;;5079602;28;20393;-58
2022/06/13 04:58:29;;;;;;;12.90;5.30;;;14.10;99.90;;;;;;5079483;28;20726;-58
2022/06/13 05:01:09;;;;;;;15.80;5.35;;;14.10;99.90;;;;;;5080503;28;20599;-58
2022/06/13 05:03:43;;;;;;;14.90;5.68;;;14.20;99.90;;;;;;5083648;28;20413;-58
2022/06/13 05:06:30;;;;;;;13.27;5.30;;;14.20;99.90;;;;;;5084996;28;20378;-58
2022/06/13 05:09:01;;;;;;;13.60;5.13;;;14.30;99.90;;;;;;5082905;28;20394;-58
2022/06/13 05:11:48;;;;;;;11.30;4.95;;;14.30;99.90;;;;;;5084320;28;20476;-58
2022/06/13 05:14:20;;;;;;;17.15;5.47;;;14.20;99.90;;;;;;5080655;28;20436;-58
2022/06/13 05:17:07;;;;;;;12.07;4.90;;;14.30;99.90;;;;;;5078842;28;20384;-58
2022/06/13 05:19:51;;;;;;;11.20;4.75;;;14.40;99.90;;;;;;5082984;28;20440;-56
2022/06/13 05:22:25;;;;;;;13.75;5.78;;;14.50;99.90;;;;;;5082130;28;20457;-58
2022/06/13 05:25:00;;;;;;;13.50;5.50;;;14.60;99.90;;;;;;5081633;28;20799;-58
2022/06/13 05:27:26;;;;;;;13.27;5.70;;;14.70;99.90;;;;;;5083887;28;20400;-58
2022/06/13 05:29:51;;;;;;;18.10;5.90;;;14.60;99.90;;;;;;5087250;28;20386;-52
2022/06/13 05:32:20;;;;;;;10.33;4.70;;;14.70;99.90;;;;;;5085517;28;20450;-58
2022/06/13 05:34:47;;;;;;;15.27;5.50;;;14.70;99.90;;;;;;5085465;28;20385;-58
2022/06/13 05:37:13;;;;;;;10.40;4.78;;;14.70;99.90;;;;;;5083282;28;20473;-57
2022/06/13 05:39:39;;;;;;;13.20;4.85;;;14.70;99.90;;;;;;5084883;28;20396;-58
2022/06/13 05:42:05;;;;;;;9.40;4.43;;;14.80;99.90;;;;;;5081353;28;20420;-58
2022/06/13 05:44:31;;;;;;;14.20;5.17;;;14.90;99.90;;;;;;5082321;28;20700;-57
2022/06/13 05:46:57;;;;;;;15.63;5.77;;;14.90;99.90;;;;;;5081778;28;20386;-56
2022/06/13 05:49:23;;;;;;;12.33;5.20;;;15.00;99.90;;;;;;5078708;28;20476;-58
2022/06/13 05:51:48;;;;;;;11.80;4.90;;;15.00;99.90;;;;;;5076067;28;20443;-56
2022/06/13 05:54:14;;;;;;;14.45;5.40;;;15.00;99.90;;;;;;5075531;28;20804;-58
2022/06/13 05:56:40;;;;;;;16.15;5.30;;;15.00;99.90;;;;;;5076263;28;20402;-57
2022/06/13 05:59:06;;;;;;;14.07;4.65;;;14.90;99.90;;;;;;5076125;28;20438;-57
2022/06/13 06:01:35;;;;;;;10.48;4.45;;;14.90;99.90;;;;;;5073692;28;20605;-57
2022/06/13 06:04:01;;;;;;;11.73;4.65;;;14.90;99.90;;;;;;5074949;28;20442;-57
2022/06/13 06:06:28;;;;;;;13.07;4.63;;;15.00;99.90;;;;;;5074501;28;20677;-58
2022/06/13 06:08:54;;;;;;;14.87;4.80;;;14.90;99.90;;;;;;5072859;28;20401;-57
2022/06/13 06:11:25;;;;;;;11.85;4.60;;;14.90;99.90;;;;;;5073915;28;20401;-58
2022/06/13 06:13:51;;;;;;;11.82;4.45;;;14.90;99.90;;;;;;5073055;28;20637;-60
2022/06/13 06:16:20;;;;;;;13.32;4.80;;;14.80;99.90;;;;;;5073618;28;20656;-56
2022/06/13 06:18:46;;;;;;;14.85;5.18;;;14.90;99.90;;;;;;5074662;28;20680;-58
2022/06/13 06:21:12;;;;;;;13.48;4.80;;;14.80;99.90;;;;;;5073577;28;20660;-57
2022/06/13 06:23:37;;;;;;;11.40;4.57;;;15.00;99.90;;;;;;5076265;28;20390;-58
2022/06/13 06:26:05;;;;;;;11.03;4.80;;;15.10;99.90;;;;;;5076803;28;20409;-58
2022/06/13 06:28:32;;;;;;;12.23;4.63;;;15.20;99.90;;;;;;5074094;28;20410;-57
2022/06/13 06:30:58;;;;;;;14.20;4.78;;;15.20;99.90;;;;;;5075562;28;20927;-57
2022/06/13 06:33:25;;;;;;;12.05;4.38;;;15.20;99.90;;;;;;5076523;28;20450;-58
2022/06/13 06:35:51;;;;;;;10.70;4.10;;;15.20;99.90;;;;;;5079319;28;20420;-56
2022/06/13 06:38:18;;;;;;;11.82;4.22;;;15.20;99.90;;;;;;5078600;28;20400;-58
2022/06/13 06:40:44;;;;;;;9.73;3.85;;;15.30;99.90;;;;;;5078848;28;20402;-59
2022/06/13 06:43:10;;;;;;;10.50;4.10;;;15.40;99.90;;;;;;5077783;28;21040;-58
2022/06/13 06:45:36;;;;;;;11.90;4.20;;;15.40;99.90;;;;;;5077838;28;20432;-57
2022/06/13 06:48:02;;;;;;;10.15;3.60;;;15.50;99.90;;;;;;5076517;28;20413;-57
2022/06/13 06:50:31;;;;;;;8.95;3.42;;;15.40;99.90;;;;;;5074063;28;20406;-56
2022/06/13 06:52:58;;;;;;;10.57;3.38;;;15.40;99.90;;;;;;5072430;28;20639;-57
2022/06/13 07:01:01;;;;;;;10.43;3.77;;;15.70;99.90;;;;;;5075284;28;20651;-58
2022/06/13 07:03:27;;;;;;;10.98;3.88;;;15.80;99.90;;;;;;5074743;28;20401;-57
2022/06/13 07:05:53;;;;;;;9.43;3.65;;;15.80;99.90;;;;;;5075152;28;20408;-58
2022/06/13 07:08:19;;;;;;;13.60;3.38;;;15.70;99.90;;;;;;5074234;28;20622;-58
2022/06/13 07:10:47;;;;;;;11.53;3.50;;;15.80;99.90;;;;;;5076985;28;20536;-56
2022/06/13 07:13:14;;;;;;;9.60;3.67;;;15.80;99.90;;;;;;5075984;28;20457;-58
2022/06/13 07:15:40;;;;;;;11.20;3.20;;;15.90;99.90;;;;;;5076747;28;20526;-58
2022/06/13 07:18:06;;;;;;;8.90;3.50;;;15.90;99.90;;;;;;5075397;28;20707;-58
2022/06/13 07:20:32;;;;;;;11.25;3.28;;;16.00;99.90;;;;;;5072101;28;20593;-56
2022/06/13 07:22:57;;;;;;;11.43;3.57;;;16.10;99.90;;;;;;5070808;28;20390;-58
2022/06/13 07:25:26;;;;;;;10.60;3.50;;;16.00;99.90;;;;;;5074114;28;20864;-56
2022/06/13 07:27:52;;;;;;;12.70;3.47;;;16.00;99.90;;;;;;5073637;28;20397;-58
2022/06/13 07:30:21;;;;;;;8.30;3.08;;;15.90;99.90;;;;;;5075816;28;20587;-58
2022/06/13 07:32:48;;;;;;;9.95;3.50;;;15.70;99.90;;;;;;5074970;28;20542;-58
2022/06/13 07:35:16;;;;;;;10.97;3.20;;;15.60;99.90;;;;;;5072349;28;20417;-59
2022/06/13 07:40:28;;;;;;;9.13;3.50;;;15.50;99.90;;;;;;5076464;28;20447;-59
2022/06/13 07:42:57;;;;;;;9.80;3.60;;;15.50;99.90;;;;;;5076100;28;20397;-56
2022/06/13 07:45:25;;;;;;;11.45;3.75;;;15.40;99.90;;;;;;5075172;28;20722;-59
2022/06/13 07:47:53;;;;;;;9.73;3.33;;;15.30;99.90;;;;;;5072929;28;20660;-57
2022/06/13 07:50:22;;;;;;;5.35;2.28;;;15.10;99.90;;;;;;5076144;28;20405;-58
2022/06/13 07:52:49;;;;;;;6.00;1.93;;;14.80;99.90;;;;;;5074478;28;20665;-58
2022/06/13 07:55:15;;;;;;;7.45;1.88;;;14.70;99.90;;;;;;5078783;28;20397;-58
2022/06/13 07:57:41;;;;;;;4.63;1.53;;;14.50;99.90;;;;;;5075855;28;20424;-59
2022/06/13 08:00:08;;;;;;;4.75;1.63;;;14.50;99.90;;;;;;5077088;28;20589;-59
2022/06/13 08:02:35;;;;;;;5.13;1.90;;;14.50;99.90;;;;;;5077185;28;20499;-58
2022/06/13 08:05:01;;;;;;;6.18;2.05;;;14.40;99.90;;;;;;5079590;28;20578;-58
2022/06/13 08:07:26;;;;;;;6.97;2.17;;;14.50;99.90;;;;;;5076300;28;20473;-59
2022/06/13 08:09:52;;;;;;;5.40;2.13;;;14.60;99.90;;;;;;5078815;28;20398;-60
2022/06/13 08:12:20;;;;;;;4.75;1.85;;;14.60;99.90;;;;;;5084713;28;20382;-58
2022/06/13 08:14:47;;;;;;;7.28;2.25;;;14.70;99.90;;;;;;5084565;28;20776;-59
2022/06/13 08:17:15;;;;;;;5.65;2.22;;;14.70;99.90;;;;;;5085169;28;20700;-57
2022/06/13 08:19:40;;;;;;;5.93;1.80;;;14.70;99.90;;;;;;5086311;28;20768;-59
2022/06/13 08:22:06;;;;;;;6.27;2.20;;;14.60;99.90;;;;;;5087439;28;20855;-59
2022/06/13 08:24:32;;;;;;;5.93;1.90;;;14.50;99.90;;;;;;5079267;28;20493;-57
2022/06/13 08:26:57;;;;;;;5.88;2.30;;;14.40;99.90;;;;;;5079206;28;20520;-58
2022/06/13 08:29:23;;;;;;;5.67;2.70;;;14.20;99.90;;;;;;5078799;28;20377;-59
2022/06/13 08:31:48;;;;;;;5.10;2.20;;;14.00;99.90;;;;;;5078524;28;20551;-59
2022/06/13 08:34:14;;;;;;;4.05;1.92;;;13.90;99.90;;;;;;5078356;28;20736;-59
2022/06/13 08:36:39;;;;;;;4.63;1.90;;;13.90;99.90;;;;;;5079740;28;20390;-57
2022/06/13 08:39:05;;;;;;;5.83;2.00;;;13.80;99.90;;;;;;5079518;28;20413;-59
2022/06/13 08:42:03;;;;;;;4.35;1.85;;;13.80;99.90;;;;;;5080493;28;20796;-59
2022/06/13 08:44:50;;;;;;;6.10;2.10;;;13.80;99.90;;;;;;5083528;28;20745;-58
2022/06/13 08:47:33;;;;;;;4.65;1.70;;;13.90;99.90;;;;;;5082179;28;20374;-57
2022/06/13 08:50:15;;;;;;;4.35;2.03;;;14.00;99.90;;;;;;5080025;28;20385;-58
2022/06/13 08:52:53;;;;;;;4.35;1.50;;;14.20;99.90;;;;;;5080500;28;20795;-58
2022/06/13 08:55:25;;;;;;;4.85;1.73;;;14.30;99.90;;;;;;5080269;28;20734;-58
2022/06/13 08:58:02;;;;;;;4.13;1.85;;;14.40;99.90;;;;;;5081176;28;20397;-57
2022/06/13 09:00:33;;;;;;;5.15;1.85;;;14.30;99.90;;;;;;5079471;28;20374;-57
2022/06/13 09:03:09;;;;;;;4.88;1.80;;;14.30;99.90;;;;;;5101206;28;20404;-56
2022/06/13 09:05:56;;;;;;;3.00;1.52;;;14.30;99.90;;;;;;5096039;28;20693;-60
2022/06/13 09:08:35;;;;;;;4.00;1.50;;;14.40;99.90;;;;;;5069386;28;20382;-57
2022/06/13 09:11:15;;;;;;;3.07;1.33;;;14.50;99.90;;;;;;5085244;28;20406;-58
2022/06/13 09:14:17;;;;;;;3.95;1.58;;;14.50;99.90;;;;;;5086382;28;20469;-58
2022/06/13 09:16:49;;;;;;;3.92;1.30;;;14.50;99.90;;;;;;5050585;28;20389;-57
2022/06/13 09:19:23;;;;;;;3.70;1.52;;;14.50;99.90;;;;;;5086636;28;20374;-59
2022/06/13 09:22:01;;;;;;;3.08;1.00;;;14.50;99.90;;;;;;5087381;28;20383;-54
2022/06/13 09:24:41;;;;;;;2.00;1.00;;;14.40;99.90;;;;;;5088862;28;20406;-59
2022/06/13 09:27:19;;;;;;;2.15;1.10;;;14.50;99.90;;;;;;5085559;28;20481;-55
2022/06/13 09:29:54;;;;;;;2.97;1.20;;;14.60;99.90;;;;;;5080315;28;20549;-58
2022/06/13 09:32:24;;;;;;;2.15;0.85;;;14.70;99.90;;;;;;5079631;28;20462;-58
2022/06/13 09:34:56;;;;;;;2.53;1.15;;;14.70;99.90;;;;;;5076932;28;20377;-57
2022/06/13 09:37:35;;;;;;;2.88;1.02;;;14.80;99.90;;;;;;5074762;28;20616;-57
2022/06/13 09:40:01;;;;;;;3.03;1.00;;;15.00;99.90;;;;;;5074947;28;20394;-57
2022/06/13 09:42:36;;;;;;;3.00;1.15;;;15.00;99.90;;;;;;5074094;28;20495;-54
2022/06/13 09:45:05;;;;;;;1.93;1.10;;;15.00;99.90;;;;;;5076641;28;20641;-58
2022/06/13 09:47:50;;;;;;;4.03;1.10;;;15.10;99.90;;;;;;5075462;28;20726;-57
2022/06/13 09:50:31;;;;;;;3.75;0.90;;;15.20;99.90;;;;;;5078968;28;20401;-58
2022/06/13 09:52:57;;;;;;;3.45;1.13;;;15.40;99.90;;;;;;5078481;28;20382;-57
2022/06/13 09:55:46;;;;;;;2.83;1.03;;;15.50;99.90;;;;;;5077776;28;20652;-58
2022/06/13 09:58:24;;;;;;;1.95;0.77;;;15.60;99.90;;;;;;5081532;28;20401;-58
2022/06/13 10:01:04;;;;;;;2.00;1.08;;;15.70;99.90;;;;;;5087011;28;20405;-58
2022/06/13 10:04:07;;;;;;;1.50;0.80;;;15.80;99.90;;;;;;5085750;28;20410;-56
2022/06/13 10:06:45;;;;;;;1.40;0.90;;;15.80;99.90;;;;;;5085382;28;20943;-57
2022/06/13 10:09:29;;;;;;;2.08;0.98;;;15.70;99.90;;;;;;5087079;28;20831;-57
2022/06/13 10:12:06;;;;;;;1.27;0.70;;;15.80;99.90;;;;;;5084630;28;20388;-59
2022/06/13 10:15:01;;;;;;;2.42;0.60;;;15.80;99.90;;;;;;5085427;28;20473;-57
2022/06/13 10:17:49;;;;;;;1.65;0.75;;;15.90;99.90;;;;;;5083846;28;20405;-58
2022/06/13 10:20:56;;;;;;;2.50;0.70;;;15.90;99.90;;;;;;5084416;28;20401;-58
2022/06/13 10:24:01;;;;;;;1.02;0.77;;;15.90;99.90;;;;;;5085092;28;21053;-57
2022/06/13 10:26:42;;;;;;;1.90;0.70;;;15.90;99.90;;;;;;5081744;28;20817;-58
2022/06/13 10:29:26;;;;;;;1.42;0.70;;;16.00;99.90;;;;;;5084260;28;20477;-58
2022/06/13 10:32:17;;;;;;;1.15;0.50;;;15.90;99.90;;;;;;5084954;28;20382;-57
2022/06/13 10:35:21;;;;;;;1.17;0.60;;;16.20;99.90;;;;;;5084306;28;20393;-56
2022/06/13 10:38:07;;;;;;;1.48;0.60;;;16.40;99.90;;;;;;5084471;28;20397;-58
2022/06/13 10:40:32;;;;;;;1.13;0.63;;;16.50;99.90;;;;;;5072335;28;20394;-58
2022/06/13 10:43:00;;;;;;;1.50;0.70;;;16.60;99.90;;;;;;5083387;28;20389;-60
2022/06/13 10:45:25;;;;;;;2.15;0.70;;;16.60;99.90;;;;;;5084769;28;20385;-58
2022/06/13 10:47:57;;;;;;;1.37;0.60;;;16.60;99.90;;;;;;5083329;28;20481;-59
2022/06/13 10:50:34;;;;;;;2.13;0.65;;;16.60;99.90;;;;;;5082537;28;20431;-60
2022/06/13 10:53:04;;;;;;;3.10;0.73;;;16.70;99.90;;;;;;5080288;28;20378;-58
2022/06/13 10:55:38;;;;;;;2.47;0.68;;;16.60;99.90;;;;;;5079394;28;20497;-58
2022/06/13 10:58:39;;;;;;;1.90;0.80;;;16.40;99.90;;;;;;5078598;28;20398;-59
2022/06/13 11:01:12;;;;;;;3.13;0.80;;;16.40;99.90;;;;;;5061844;28;20839;-59
2022/06/13 11:04:00;;;;;;;2.10;0.73;;;16.40;99.90;;;;;;5076300;28;20408;-59
2022/06/13 11:06:31;;;;;;;2.15;0.75;;;16.60;99.90;;;;;;5080040;28;20422;-59
2022/06/13 11:09:02;;;;;;;2.22;0.88;;;16.70;99.90;;;;;;5081949;28;20398;-59
2022/06/13 11:11:38;;;;;;;2.40;0.60;;;16.80;99.90;;;;;;5080017;28;20524;-58
2022/06/13 11:14:08;;;;;;;3.38;0.80;;;16.90;99.90;;;;;;5080866;28;20800;-57
2022/06/13 11:22:48;;;;;;;1.95;0.90;;;16.90;99.90;;;;;;5082186;28;20690;-58
2022/06/13 11:25:26;;;;;;;3.40;1.20;;;16.90;99.90;;;;;;5080726;28;20473;-59
2022/06/13 11:28:00;;;;;;;2.58;1.00;;;16.80;99.90;;;;;;5077823;28;20450;-56
2022/06/13 11:30:29;;;;;;;3.25;0.90;;;16.80;99.90;;;;;;5078161;28;20388;-60
2022/06/13 11:33:09;;;;;;;2.60;0.73;;;16.90;99.90;;;;;;5080039;28;20532;-59
2022/06/13 11:35:56;;;;;;;2.80;0.80;;;16.90;99.90;;;;;;5077477;28;20465;-59
2022/06/13 11:38:29;;;;;;;2.97;0.80;;;17.10;99.90;;;;;;5076802;28;20402;-57
2022/06/13 11:41:28;;;;;;;3.72;0.80;;;17.40;99.90;;;;;;5080872;28;20472;-59
2022/06/13 11:43:58;;;;;;;2.53;0.93;;;17.50;99.90;;;;;;5082258;28;20488;-60
2022/06/13 11:46:23;;;;;;;3.42;1.05;;;17.20;99.90;;;;;;5082024;28;20477;-59
2022/06/13 11:48:50;;;;;;;2.77;1.17;;;17.20;99.90;;;;;;5080503;28;20535;-59
2022/06/13 11:51:22;;;;;;;2.88;0.90;;;17.10;99.90;;;;;;5080029;28;20381;-60
2022/06/13 11:53:49;;;;;;;4.25;0.90;;;17.00;99.90;;;;;;5082261;28;20389;-65
2022/06/13 11:56:32;;;;;;;3.88;1.20;;;16.90;99.90;;;;;;5078992;28;20374;-64
2022/06/13 11:59:06;;;;;;;2.13;0.75;;;16.90;99.90;;;;;;5076591;28;20419;-59
2022/06/13 12:01:35;;;;;;;6.95;1.13;;;17.00;99.90;;;;;;5078114;28;20457;-59
2022/06/13 12:04:13;;;;;;;3.80;0.70;;;17.20;99.90;;;;;;5078409;28;20422;-58
2022/06/13 12:06:46;;;;;;;3.20;0.87;;;17.30;99.90;;;;;;5082415;28;21082;-58
2022/06/13 12:09:23;;;;;;;1.35;0.80;;;17.70;99.90;;;;;;5079042;28;20390;-58
2022/06/13 12:11:59;;;;;;;3.05;0.75;;;18.10;99.90;;;;;;5080386;28;20775;-56
2022/06/13 12:14:26;;;;;;;3.67;0.60;;;18.00;99.90;;;;;;5079890;28;20392;-57
2022/06/13 12:17:12;;;;;;;4.57;0.82;;;17.90;99.90;;;;;;5083037;28;20789;-57
2022/06/13 12:19:45;;;;;;;3.28;0.60;;;17.90;99.90;;;;;;5084514;28;20942;-58
2022/06/13 12:22:18;;;;;;;2.00;0.70;;;17.70;99.90;;;;;;5084114;28;20471;-58
2022/06/13 12:25:13;;;;;;;3.03;1.00;;;17.90;99.90;;;;;;5085918;28;21073;-57
2022/06/13 12:28:03;;;;;;;3.45;0.88;;;18.10;99.90;;;;;;5086266;28;20453;-57
2022/06/13 12:30:49;;;;;;;1.70;0.60;;;17.90;99.90;;;;;;5085584;28;20378;-58
2022/06/13 12:33:43;;;;;;;2.15;0.85;;;17.80;99.90;;;;;;5084336;28;20370;-57
2022/06/13 12:36:30;;;;;;;2.28;0.77;;;17.90;99.90;;;;;;5085614;28;20393;-57
2022/06/13 12:39:21;;;;;;;1.80;0.63;;;18.00;99.90;;;;;;5087719;28;20405;-58
2022/06/13 12:41:56;;;;;;;2.43;0.60;;;18.10;99.90;;;;;;5086190;28;20378;-57
2022/06/13 12:44:30;;;;;;;1.73;0.60;;;18.30;99.90;;;;;;5083408;28;20388;-54
2022/06/13 12:47:10;;;;;;;2.38;0.77;;;18.40;99.90;;;;;;5082288;28;20469;-57
2022/06/13 12:49:48;;;;;;;1.00;0.50;;;18.10;99.90;;;;;;5083118;28;20979;-57
2022/06/13 12:52:27;;;;;;;7.72;0.73;;;18.20;99.90;;;;;;5085495;28;20381;-57
2022/06/13 12:55:14;;;;;;;1.98;0.85;;;18.50;99.90;;;;;;5084507;28;21055;-56
2022/06/13 12:58:16;;;;;;;2.65;0.93;;;18.60;99.90;;;;;;5083501;28;20502;-55
2022/06/13 13:00:49;;;;;;;3.03;0.85;;;19.00;99.90;;;;;;5086967;28;20393;-57
2022/06/13 13:03:45;;;;;;;2.17;0.70;;;19.20;99.90;;;;;;5086318;28;20398;-56
2022/06/13 13:06:27;;;;;;;2.95;0.98;;;19.10;99.90;;;;;;5087853;28;20721;-57
2022/06/13 13:09:23;;;;;;;3.25;0.70;;;19.10;99.90;;;;;;5085752;28;20451;-57
2022/06/13 13:12:02;;;;;;;3.83;0.98;;;19.20;99.90;;;;;;5085134;28;20394;-57
2022/06/13 13:14:32;;;;;;;2.20;0.77;;;19.40;99.90;;;;;;5084097;28;20472;-55
2022/06/13 13:16:58;;;;;;;3.45;1.00;;;19.30;99.90;;;;;;5081547;28;20392;-57
2022/06/13 13:19:27;;;;;;;2.50;0.82;;;19.40;99.90;;;;;;5080254;28;20450;-56
2022/06/13 13:22:08;;;;;;;4.13;0.93;;;19.50;99.90;;;;;;5080408;28;20389;-57
2022/06/13 13:24:50;;;;;;;4.85;0.85;;;19.40;99.90;;;;;;5080570;28;20804;-55
2022/06/13 13:27:19;;;;;;;2.05;0.80;;;19.70;99.90;;;;;;5082529;28;20390;-56
2022/06/13 13:30:25;;;;;;;1.60;0.50;;;19.60;99.90;;;;;;5082974;28;20386;-55
2022/06/13 13:33:09;;;;;;;2.90;0.90;;;19.80;99.90;;;;;;5081115;28;20653;-57
2022/06/13 13:35:48;;;;;;;3.85;0.70;;;19.90;99.90;;;;;;5078416;28;20954;-57
2022/06/13 13:38:43;;;;;;;2.35;0.77;;;20.00;99.90;;;;;;5081987;28;20480;-57